Time;durP1;ratioP1;P1;durP2;ratioP2;P2;SDS_P1;SDS_P2;PMS_P1;PMS_P2;Temp;Humidity;BMP_temperature;BMP_pressure;BME280_temperature;BME280_humidity;BME280_pressure;Samples;Min_cycle;Max_cycle;Signal;HPM_P1;HPM_P2
2022/08/31 00:03:58;;;;;;;0.57;0.57;;;;;;;18.83;65.26;99711.97;5072472;28;20041;-62
2022/08/31 00:06:27;;;;;;;0.60;0.60;;;;;;;18.83;65.45;99706.78;5073906;28;20117;-62
2022/08/31 00:08:55;;;;;;;0.60;0.60;;;;;;;18.87;65.29;99705.78;5073824;28;20517;-62
2022/08/31 00:11:29;;;;;;;0.82;0.82;;;;;;;18.94;64.94;99712.44;5069519;28;20461;-62
2022/08/31 00:13:59;;;;;;;0.80;0.68;;;;;;;18.98;64.82;99708.88;5053429;28;20076;-62
2022/08/31 00:16:30;;;;;;;1.02;0.93;;;;;;;18.88;64.97;99684.19;5053565;28;20068;-63
2022/08/31 00:19:01;;;;;;;0.80;0.80;;;;;;;18.89;65.17;99694.47;5054166;28;20498;-62
2022/08/31 00:21:30;;;;;;;1.95;0.98;;;;;;;18.91;65.02;99697.03;5053304;28;20040;-62
2022/08/31 00:23:59;;;;;;;1.10;0.93;;;;;;;18.83;65.60;99697.28;5053428;28;20041;-62
2022/08/31 00:26:27;;;;;;;2.53;0.90;;;;;;;18.84;65.59;99698.09;5053870;28;20179;-61
2022/08/31 00:28:56;;;;;;;1.17;1.08;;;;;;;18.80;65.82;99704.28;5059526;28;20124;-62
2022/08/31 00:31:24;;;;;;;0.90;0.85;;;;;;;18.74;65.75;99701.00;5073880;28;20046;-62
2022/08/31 00:33:54;;;;;;;1.20;1.10;;;;;;;18.68;66.18;99703.81;5073528;28;20123;-61
2022/08/31 00:36:26;;;;;;;1.35;0.95;;;;;;;18.58;66.48;99699.84;5072519;28;20094;-62
2022/08/31 00:38:56;;;;;;;8.07;1.10;;;;;;;18.43;66.63;99695.13;5073329;28;20102;-61
2022/08/31 00:41:27;;;;;;;2.58;0.93;;;;;;;18.45;66.51;99708.84;5074315;28;20045;-61
2022/08/31 00:43:58;;;;;;;1.60;1.33;;;;;;;18.36;67.05;99706.56;5073528;28;20113;-62
2022/08/31 00:46:29;;;;;;;0.75;0.65;;;;;;;18.22;67.30;99695.81;5065612;28;20073;-61
2022/08/31 00:49:04;;;;;;;1.38;1.27;;;;;;;18.18;67.58;99699.41;5051949;28;20049;-61
2022/08/31 00:51:37;;;;;;;0.80;0.80;;;;;;;18.12;67.91;99699.56;5053409;28;20049;-61
2022/08/31 00:54:09;;;;;;;1.08;0.85;;;;;;;18.16;68.16;99703.78;5054037;28;20390;-61
2022/08/31 00:56:39;;;;;;;0.70;0.70;;;;;;;18.15;68.03;99694.31;5052141;28;20110;-61
2022/08/31 00:59:07;;;;;;;;;;;;;;;18.19;67.84;99701.06;5052248;28;20132;-61
2022/08/31 01:01:36;;;;;;;1.15;1.05;;;;;;;18.18;68.12;99698.56;5061928;28;20267;-62
2022/08/31 01:04:05;;;;;;;0.82;0.82;;;;;;;18.08;68.47;99695.41;5072439;28;20094;-61
2022/08/31 01:06:36;;;;;;;1.25;1.15;;;;;;;17.95;68.61;99696.66;5075527;28;20101;-62
2022/08/31 01:09:07;;;;;;;1.98;1.42;;;;;;;17.79;68.80;99693.72;5057026;28;20057;-61
2022/08/31 01:11:37;;;;;;;0.80;0.80;;;;;;;17.75;69.32;99696.44;5057121;28;20049;-61
2022/08/31 01:14:07;;;;;;;1.20;1.10;;;;;;;17.79;69.64;99695.44;5056541;28;20052;-61
2022/08/31 01:16:40;;;;;;;0.80;0.80;;;;;;;17.81;69.91;99698.81;5073440;28;20045;-61
2022/08/31 01:19:17;;;;;;;1.50;1.27;;;;;;;17.84;69.70;99703.91;5073316;28;20033;-62
2022/08/31 01:21:56;;;;;;;0.77;0.77;;;;;;;17.86;69.83;99702.09;5076641;28;20490;-61
2022/08/31 01:24:28;;;;;;;1.92;1.35;;;;;;;17.77;70.04;99702.38;5076346;28;20094;-62
2022/08/31 01:27:02;;;;;;;0.73;0.73;;;;;;;17.77;70.41;99697.22;5074568;28;20079;-62
2022/08/31 01:29:32;;;;;;;1.00;0.90;;;;;;;17.80;70.20;99697.13;5076312;28;20542;-62
2022/08/31 01:32:01;;;;;;;;;;;;;;;17.80;70.31;99697.97;5076916;28;20505;-61
2022/08/31 01:34:29;;;;;;;0.60;0.60;;;;;;;17.76;70.72;99711.00;5076358;28;20023;-62
2022/08/31 01:36:58;;;;;;;1.33;1.00;;;;;;;17.79;70.48;99710.94;5067459;28;20041;-62
2022/08/31 01:39:29;;;;;;;1.60;1.13;;;;;;;17.83;70.22;99712.53;5056174;28;20541;-62
2022/08/31 01:41:59;;;;;;;1.00;0.93;;;;;;;17.85;70.00;99716.75;5055151;28;20119;-61
2022/08/31 01:44:29;;;;;;;0.98;0.90;;;;;;;17.82;70.36;99718.59;5060330;28;20140;-61
2022/08/31 01:46:58;;;;;;;0.82;0.82;;;;;;;17.79;70.19;99721.25;5054988;28;20060;-62
2022/08/31 01:49:28;;;;;;;0.82;0.82;;;;;;;17.77;70.09;99716.16;5054935;28;20040;-62
2022/08/31 01:51:57;;;;;;;0.90;0.90;;;;;;;17.75;70.19;99711.91;5056780;28;20053;-61
2022/08/31 01:54:27;;;;;;;3.47;1.23;;;;;;;17.68;70.00;99713.00;5055097;28;20137;-61
2022/08/31 01:57:00;;;;;;;0.80;0.80;;;;;;;17.57;70.51;99715.00;5055014;28;20114;-61
2022/08/31 01:59:44;;;;;;;3.05;0.93;;;;;;;17.49;70.86;99722.13;5054891;28;20051;-62
2022/08/31 02:02:24;;;;;;;1.05;0.98;;;;;;;17.44;70.82;99715.31;5055829;28;20049;-62
2022/08/31 02:04:52;;;;;;;1.17;0.80;;;;;;;17.40;71.22;99713.72;5054795;28;20037;-61
2022/08/31 02:07:21;;;;;;;0.80;0.80;;;;;;;17.41;71.51;99712.84;5054685;28;20056;-61
2022/08/31 02:09:51;;;;;;;0.73;0.73;;;;;;;17.30;71.62;99717.44;5054651;28;20132;-61
2022/08/31 02:12:20;;;;;;;0.90;0.82;;;;;;;17.30;71.74;99716.59;5054581;28;20517;-62
2022/08/31 02:14:48;;;;;;;0.90;0.85;;;;;;;17.27;71.68;99714.97;5055414;28;20498;-61
2022/08/31 02:17:17;;;;;;;1.75;0.98;;;;;;;17.21;72.02;99719.44;5054334;28;20068;-61
2022/08/31 02:19:46;;;;;;;1.23;1.15;;;;;;;17.22;72.20;99718.56;5054704;28;20044;-61
2022/08/31 02:22:14;;;;;;;1.67;1.57;;;;;;;17.23;71.85;99715.91;5054721;28;20053;-61
2022/08/31 02:24:44;;;;;;;0.95;0.95;;;;;;;17.26;72.24;99710.69;5054303;28;20471;-61
2022/08/31 02:27:14;;;;;;;0.80;0.80;;;;;;;17.23;71.97;99715.91;5056990;28;20076;-62
2022/08/31 02:29:42;;;;;;;1.25;1.05;;;;;;;17.18;72.17;99706.63;5074360;28;20055;-62
2022/08/31 02:32:11;;;;;;;0.57;0.57;;;;;;;17.14;72.34;99705.00;5074371;28;20044;-61
2022/08/31 02:34:48;;;;;;;0.60;0.60;;;;;;;17.20;72.69;99700.53;5072317;28;20443;-62
2022/08/31 02:37:17;;;;;;;0.70;0.70;;;;;;;17.29;72.02;99700.28;5053737;28;20135;-61
2022/08/31 02:39:48;;;;;;;0.82;0.82;;;;;;;17.38;71.68;99710.34;5053893;28;20064;-61
2022/08/31 02:42:20;;;;;;;0.60;0.60;;;;;;;17.48;71.63;99707.50;5053949;28;20540;-61
2022/08/31 02:44:50;;;;;;;0.82;0.82;;;;;;;17.50;71.27;99704.00;5054489;28;20053;-61
2022/08/31 02:47:19;;;;;;;1.75;0.88;;;;;;;17.39;71.33;99685.41;5055041;28;20124;-61
2022/08/31 02:50:01;;;;;;;1.98;1.73;;;;;;;17.48;71.27;99699.75;5053734;28;20552;-61
2022/08/31 02:52:30;;;;;;;0.70;0.70;;;;;;;17.55;71.19;99701.31;5054040;28;20537;-61
2022/08/31 02:54:59;;;;;;;2.60;1.88;;;;;;;17.54;71.32;99690.13;5054978;28;20115;-61
2022/08/31 02:57:31;;;;;;;1.23;1.13;;;;;;;17.59;71.19;99695.19;5054567;28;20045;-62
2022/08/31 02:59:59;;;;;;;0.65;0.65;;;;;;;17.54;71.59;99689.31;5053534;28;20072;-62
2022/08/31 03:02:30;;;;;;;1.10;0.90;;;;;;;17.53;71.54;99692.78;5065674;28;20106;-62
2022/08/31 03:05:01;;;;;;;1.25;1.02;;;;;;;17.46;71.66;99696.38;5073587;28;20482;-62
2022/08/31 03:07:32;;;;;;;1.00;1.00;;;;;;;17.37;71.73;99698.31;5073305;28;20110;-62
2022/08/31 03:10:01;;;;;;;1.25;1.08;;;;;;;17.28;72.17;99693.44;5072283;28;20123;-61
2022/08/31 03:12:31;;;;;;;1.80;1.15;;;;;;;17.24;72.16;99704.72;5074669;28;20064;-61
2022/08/31 03:15:00;;;;;;;1.10;1.00;;;;;;;17.23;72.22;99695.28;5074311;28;20048;-61
2022/08/31 03:17:28;;;;;;;1.33;1.13;;;;;;;17.25;72.32;99697.84;5074116;28;20052;-62
2022/08/31 03:19:59;;;;;;;1.02;0.98;;;;;;;17.25;72.34;99693.50;5054521;28;20064;-61
2022/08/31 03:22:28;;;;;;;1.23;0.80;;;;;;;17.15;72.32;99705.00;5053027;28;20049;-61
2022/08/31 03:24:57;;;;;;;1.13;1.05;;;;;;;17.02;72.92;99701.03;5052161;28;20095;-61
2022/08/31 03:27:28;;;;;;;1.05;0.95;;;;;;;17.00;72.95;99707.97;5053409;28;20068;-61
2022/08/31 03:29:59;;;;;;;1.77;1.02;;;;;;;17.01;72.99;99708.81;5054598;28;20360;-62
2022/08/31 03:32:32;;;;;;;6.95;2.10;;;;;;;17.01;73.13;99698.50;5052841;28;20049;-61
2022/08/31 03:35:01;;;;;;;0.80;0.80;;;;;;;17.08;73.02;99706.03;5053196;28;20037;-63
2022/08/31 03:37:30;;;;;;;3.63;1.67;;;;;;;17.09;73.04;99712.88;5073720;28;20075;-62
2022/08/31 03:40:01;;;;;;;3.47;1.23;;;;;;;17.13;72.92;99714.47;5072718;28;20048;-61
2022/08/31 03:42:31;;;;;;;1.02;0.98;;;;;;;17.14;72.67;99717.91;5072065;28;20046;-62
2022/08/31 03:45:02;;;;;;;3.47;1.63;;;;;;;17.18;72.84;99717.78;5069843;28;20490;-61
2022/08/31 03:47:34;;;;;;;0.65;0.65;;;;;;;17.16;72.43;99714.41;5052886;28;20052;-61
2022/08/31 03:50:12;;;;;;;1.35;1.02;;;;;;;17.14;72.38;99726.50;5052594;28;20045;-62
2022/08/31 03:53:02;;;;;;;0.88;0.82;;;;;;;17.08;72.13;99726.66;5058552;28;20056;-61
2022/08/31 03:55:32;;;;;;;5.82;1.05;;;;;;;17.06;72.39;99719.84;5072503;28;20055;-61
2022/08/31 03:58:01;;;;;;;1.67;1.52;;;;;;;17.06;72.59;99719.84;5072725;28;20086;-61
2022/08/31 04:00:32;;;;;;;1.00;0.98;;;;;;;17.01;72.53;99719.13;5064169;28;20052;-61
2022/08/31 04:03:06;;;;;;;1.42;1.33;;;;;;;17.00;72.65;99718.28;5052055;28;20095;-61
2022/08/31 04:05:45;;;;;;;;;;;;;;;17.01;72.62;99709.63;5054785;28;20670;-61
2022/08/31 04:08:16;;;;;;;1.83;1.35;;;;;;;17.00;72.55;99713.13;5053754;28;19921;-61
2022/08/31 04:10:52;;;;;;;1.42;1.15;;;;;;;16.96;72.33;99713.25;5068983;28;20045;-61
2022/08/31 04:13:31;;;;;;;0.80;0.80;;;;;;;16.93;72.17;99721.91;5073469;28;20098;-61
2022/08/31 04:16:13;;;;;;;1.75;1.63;;;;;;;16.91;72.15;99723.69;5073720;28;20045;-61
2022/08/31 04:18:53;;;;;;;1.02;1.00;;;;;;;16.91;72.33;99734.00;5062872;28;20060;-61
2022/08/31 04:21:25;;;;;;;7.05;1.00;;;;;;;16.90;72.19;99732.28;5052111;28;20053;-62
2022/08/31 04:23:55;;;;;;;2.03;1.60;;;;;;;16.86;72.21;99738.41;5051890;28;20075;-61
2022/08/31 04:26:26;;;;;;;18.58;1.52;;;;;;;16.86;72.39;99735.84;5053073;28;20459;-62
2022/08/31 04:28:55;;;;;;;1.33;1.23;;;;;;;16.82;72.05;99733.38;5053360;28;20080;-61
2022/08/31 04:31:26;;;;;;;1.55;1.30;;;;;;;16.75;72.13;99733.53;5052252;28;20045;-61
2022/08/31 04:33:57;;;;;;;1.42;1.23;;;;;;;16.76;72.26;99731.78;5052871;28;20075;-62
2022/08/31 04:36:28;;;;;;;1.95;1.45;;;;;;;16.72;72.05;99732.75;5055075;28;20140;-60
2022/08/31 04:38:59;;;;;;;0.85;0.82;;;;;;;16.74;72.06;99731.00;5069197;28;20490;-62
2022/08/31 04:41:30;;;;;;;1.33;1.20;;;;;;;16.76;72.39;99734.38;5077241;28;20105;-62
2022/08/31 04:44:02;;;;;;;1.45;1.00;;;;;;;16.77;72.16;99728.34;5067404;28;20044;-62
2022/08/31 04:46:33;;;;;;;1.15;1.02;;;;;;;16.69;71.78;99722.53;5055750;28;20076;-61
2022/08/31 04:49:03;;;;;;;0.85;0.80;;;;;;;16.72;72.24;99722.44;5055968;28;20048;-61
2022/08/31 04:51:34;;;;;;;0.80;0.80;;;;;;;16.77;72.28;99725.75;5056403;28;20045;-62
2022/08/31 04:54:04;;;;;;;0.98;0.93;;;;;;;16.89;72.43;99725.47;5056960;28;20135;-61
2022/08/31 04:56:35;;;;;;;0.70;0.70;;;;;;;17.02;72.65;99725.97;5057262;28;20106;-61
2022/08/31 04:59:07;;;;;;;0.82;0.77;;;;;;;17.10;72.46;99736.94;5055977;28;20521;-61
2022/08/31 05:01:45;;;;;;;1.20;1.10;;;;;;;17.11;72.12;99736.88;5069616;28;20510;-64
2022/08/31 05:04:36;;;;;;;1.85;0.88;;;;;;;17.17;71.97;99726.41;5076359;28;20055;-62
2022/08/31 05:07:06;;;;;;;0.57;0.57;;;;;;;17.28;71.99;99729.53;5059095;28;20098;-60
2022/08/31 05:09:35;;;;;;;;;;;;;;;17.43;71.93;99742.03;5069315;28;20044;-62
2022/08/31 05:12:04;;;;;;;0.90;0.88;;;;;;;17.58;71.92;99745.13;5056515;28;19921;-62
2022/08/31 05:14:34;;;;;;;2.15;1.45;;;;;;;17.71;71.93;99749.03;5074361;28;20044;-62
2022/08/31 05:17:15;;;;;;;0.98;0.95;;;;;;;17.82;71.95;99737.53;5072752;28;20057;-62
2022/08/31 05:19:45;;;;;;;1.20;1.10;;;;;;;17.98;71.83;99748.22;5055159;28;20045;-62
2022/08/31 05:22:15;;;;;;;0.70;0.70;;;;;;;18.12;71.80;99751.25;5055314;28;20617;-62
2022/08/31 05:24:47;;;;;;;0.77;0.77;;;;;;;18.23;71.25;99749.19;5038824;28;20055;-62
2022/08/31 05:27:15;;;;;;;0.85;0.85;;;;;;;18.34;70.94;99752.28;5064961;28;20044;-62
2022/08/31 05:29:45;;;;;;;1.33;1.23;;;;;;;18.45;70.79;99752.78;5074467;28;20044;-62
2022/08/31 05:32:26;;;;;;;0.93;0.93;;;;;;;18.50;70.52;99758.69;5066099;28;20098;-62
2022/08/31 05:34:59;;;;;;;1.65;1.55;;;;;;;18.55;70.35;99751.63;5067713;28;20044;-62
2022/08/31 05:37:27;;;;;;;1.23;1.13;;;;;;;18.59;70.39;99753.25;5061349;28;20056;-62
2022/08/31 05:39:56;;;;;;;0.85;0.85;;;;;;;18.70;70.01;99760.66;5059642;28;20086;-66
2022/08/31 05:42:25;;;;;;;0.95;0.95;;;;;;;18.81;69.68;99747.38;5071708;28;20464;-62
2022/08/31 05:44:53;;;;;;;0.80;0.80;;;;;;;18.90;69.57;99753.09;5060238;28;20052;-62
2022/08/31 05:47:23;;;;;;;0.65;0.65;;;;;;;19.00;68.89;99748.44;5053358;28;20140;-62
2022/08/31 05:49:53;;;;;;;28.33;1.35;;;;;;;19.06;68.70;99756.00;5054741;28;20043;-62
2022/08/31 05:52:23;;;;;;;1.83;1.67;;;;;;;19.04;68.38;99744.84;5056402;28;20059;-62
2022/08/31 05:54:54;;;;;;;3.08;1.50;;;;;;;19.22;68.17;99770.09;5053567;28;20048;-62
2022/08/31 05:57:23;;;;;;;1.20;0.70;;;;;;;19.26;67.94;99774.28;5056025;28;20041;-62
2022/08/31 05:59:57;;;;;;;1.10;1.02;;;;;;;19.28;67.73;99775.06;5055802;28;20073;-62
2022/08/31 06:02:27;;;;;;;2.60;1.40;;;;;;;19.21;67.73;99758.06;5055658;28;20048;-62
2022/08/31 06:05:00;;;;;;;4.70;2.17;;;;;;;19.40;67.77;99772.09;5054462;28;20045;-62
2022/08/31 06:07:29;;;;;;;0.90;0.85;;;;;;;19.46;67.56;99771.84;5054312;28;20052;-62
2022/08/31 06:10:01;;;;;;;0.98;0.93;;;;;;;19.59;67.38;99777.44;5055961;28;20057;-62
2022/08/31 06:12:33;;;;;;;1.08;0.98;;;;;;;19.68;67.17;99775.38;5055443;28;20041;-62
2022/08/31 06:15:03;;;;;;;1.63;1.45;;;;;;;19.66;66.87;99789.28;5054353;28;20037;-62
2022/08/31 06:17:33;;;;;;;1.55;1.17;;;;;;;19.73;66.74;99789.00;5054260;28;20048;-62
2022/08/31 06:20:06;;;;;;;2.92;1.48;;;;;;;19.84;66.47;99781.69;5054403;28;20087;-62
2022/08/31 06:22:35;;;;;;;1.25;1.15;;;;;;;19.92;66.31;99786.59;5055352;28;20048;-62
2022/08/31 06:25:09;;;;;;;2.17;1.20;;;;;;;19.89;66.10;99782.34;5055678;28;20045;-62
2022/08/31 06:27:38;;;;;;;0.70;0.70;;;;;;;19.97;66.30;99788.13;5054356;28;20068;-62
2022/08/31 06:30:09;;;;;;;1.73;1.17;;;;;;;20.10;66.19;99787.66;5055456;28;20068;-62
2022/08/31 06:32:37;;;;;;;3.70;1.20;;;;;;;20.23;65.75;99783.75;5056272;28;20079;-62
2022/08/31 06:35:10;;;;;;;0.73;0.73;;;;;;;20.31;65.40;99786.88;5055105;28;20045;-62
2022/08/31 06:38:05;;;;;;;1.30;1.02;;;;;;;20.31;65.00;99787.72;5054083;28;20561;-63
2022/08/31 06:40:59;;;;;;;0.68;0.68;;;;;;;20.39;64.75;99785.69;5053857;28;20127;-62
2022/08/31 06:43:51;;;;;;;0.85;0.82;;;;;;;20.47;64.80;99781.03;5062898;28;20059;-62
2022/08/31 06:46:42;;;;;;;1.95;1.77;;;;;;;20.63;64.80;99783.88;5054597;28;20372;-62
2022/08/31 06:49:25;;;;;;;1.23;1.02;;;;;;;20.77;64.16;99781.56;5055072;28;20041;-62
2022/08/31 06:51:59;;;;;;;1.80;0.80;;;;;;;20.81;63.73;99787.44;5053740;28;20040;-62
2022/08/31 06:54:29;;;;;;;0.55;0.55;;;;;;;20.92;63.48;99780.94;5055088;28;20041;-62
2022/08/31 06:57:09;;;;;;;1.23;1.13;;;;;;;21.05;62.70;99779.53;5059432;28;20378;-63
2022/08/31 06:59:51;;;;;;;;;;;;;;;21.13;62.43;99779.22;5063857;28;20036;-62
2022/08/31 07:02:31;;;;;;;1.05;0.85;;;;;;;21.24;62.36;99787.41;5056155;28;19921;-63
2022/08/31 07:05:00;;;;;;;1.20;1.03;;;;;;;21.36;62.21;99782.53;5064465;28;20098;-63
2022/08/31 07:07:31;;;;;;;0.80;0.80;;;;;;;21.53;61.65;99778.34;5061916;28;20505;-62
2022/08/31 07:10:01;;;;;;;0.95;0.90;;;;;;;21.64;61.24;99773.53;5072194;28;20525;-63
2022/08/31 07:12:29;;;;;;;1.17;0.90;;;;;;;21.67;60.82;99775.97;5069558;28;20091;-62
2022/08/31 07:14:58;;;;;;;0.77;0.77;;;;;;;21.75;60.99;99773.91;5053419;28;20045;-63
2022/08/31 07:17:29;;;;;;;2.28;0.63;;;;;;;21.87;60.78;99768.19;5053100;28;20495;-62
2022/08/31 07:19:58;;;;;;;1.98;1.38;;;;;;;21.96;60.50;99779.00;5060706;28;20033;-62
2022/08/31 07:22:27;;;;;;;2.10;1.23;;;;;;;22.07;60.14;99767.28;5057035;28;20047;-62
2022/08/31 07:25:14;;;;;;;1.15;1.05;;;;;;;22.09;59.55;99768.03;5054352;28;20098;-62
2022/08/31 07:27:43;;;;;;;1.23;1.13;;;;;;;22.19;59.69;99764.97;5057983;28;20490;-63
2022/08/31 07:30:12;;;;;;;0.87;0.80;;;;;;;22.32;59.03;99767.81;5073260;28;20083;-62
2022/08/31 07:32:42;;;;;;;1.08;0.98;;;;;;;22.30;58.64;99767.88;5067343;28;20049;-62
2022/08/31 07:35:11;;;;;;;1.80;1.27;;;;;;;22.39;58.72;99766.59;5054758;28;20080;-62
2022/08/31 07:43:21;;;;;;;1.83;1.40;;;;;;;22.44;58.33;99765.47;5073846;28;20141;-62
2022/08/31 07:45:50;;;;;;;0.80;0.80;;;;;;;22.55;58.23;99762.38;5058889;28;20044;-62
2022/08/31 07:48:25;;;;;;;0.60;0.60;;;;;;;22.61;58.03;99762.94;5053579;28;20053;-62
2022/08/31 07:51:22;;;;;;;1.48;1.08;;;;;;;22.69;57.91;99765.19;5052974;28;20051;-62
2022/08/31 07:54:09;;;;;;;0.80;0.80;;;;;;;22.74;57.99;99767.56;5061472;28;20123;-63
2022/08/31 07:56:50;;;;;;;4.47;1.25;;;;;;;22.63;57.96;99761.09;5053948;28;20068;-62
2022/08/31 07:59:23;;;;;;;4.20;1.42;;;;;;;22.76;58.12;99765.72;5053584;28;20536;-62
2022/08/31 08:01:54;;;;;;;1.10;1.00;;;;;;;22.82;58.09;99765.44;5052201;28;20045;-63
2022/08/31 08:04:25;;;;;;;1.77;1.52;;;;;;;22.92;58.13;99766.63;5059812;28;20059;-63
2022/08/31 08:07:17;;;;;;;1.00;0.95;;;;;;;23.09;57.72;99769.25;5057624;28;20102;-62
2022/08/31 08:10:01;;;;;;;1.10;1.00;;;;;;;23.15;57.37;99768.94;5062047;28;20053;-62
2022/08/31 08:13:01;;;;;;;1.10;0.90;;;;;;;23.18;56.87;99769.63;5053139;28;20510;-62
2022/08/31 08:15:55;;;;;;;0.55;0.52;;;;;;;23.37;56.81;99771.34;5060496;28;20090;-62
2022/08/31 08:18:36;;;;;;;1.00;0.90;;;;;;;23.45;56.55;99770.00;5053689;28;20411;-62
2022/08/31 08:21:05;;;;;;;1.27;1.00;;;;;;;23.50;56.17;99760.19;5062593;28;20090;-62
2022/08/31 08:23:35;;;;;;;0.93;0.90;;;;;;;23.54;56.04;99768.69;5052175;28;20049;-62
2022/08/31 08:26:30;;;;;;;1.17;0.80;;;;;;;23.66;56.07;99763.66;5060125;28;20096;-62
2022/08/31 08:29:11;;;;;;;2.80;1.35;;;;;;;23.73;55.94;99757.19;5053297;28;20049;-62
2022/08/31 08:31:44;;;;;;;3.45;1.45;;;;;;;23.87;55.55;99753.88;5052398;28;20076;-62
2022/08/31 08:34:13;;;;;;;0.70;0.70;;;;;;;23.90;55.33;99754.53;5053052;28;20519;-62
2022/08/31 08:36:42;;;;;;;0.97;0.83;;;;;;;23.98;55.57;99757.59;5051934;28;20045;-62
2022/08/31 08:39:11;;;;;;;0.90;0.90;;;;;;;23.97;55.52;99745.44;5051936;28;20037;-62
2022/08/31 08:41:52;;;;;;;0.80;0.80;;;;;;;24.15;55.37;99754.09;5053178;28;20049;-62
2022/08/31 08:44:27;;;;;;;1.20;1.10;;;;;;;24.31;55.18;99748.84;5053142;28;20098;-62
2022/08/31 08:46:59;;;;;;;1.35;0.88;;;;;;;24.50;55.04;99750.34;5052264;28;20410;-62
2022/08/31 08:49:40;;;;;;;3.70;1.55;;;;;;;24.56;54.92;99743.94;5053352;28;20056;-62
2022/08/31 08:52:14;;;;;;;0.93;0.80;;;;;;;24.58;54.26;99745.53;5063863;28;20503;-62
2022/08/31 08:54:48;;;;;;;1.38;1.15;;;;;;;24.70;54.15;99746.59;5054942;28;20053;-62
2022/08/31 08:57:22;;;;;;;0.93;0.70;;;;;;;24.84;54.05;99749.28;5056818;28;20041;-63
2022/08/31 08:59:57;;;;;;;1.02;0.95;;;;;;;24.94;53.58;99745.22;5057308;28;20049;-62
2022/08/31 09:02:33;;;;;;;0.60;0.60;;;;;;;24.99;53.50;99748.41;5072369;28;20060;-62
2022/08/31 09:05:33;;;;;;;5.32;1.13;;;;;;;25.13;53.36;99744.97;5065467;28;20048;-63
2022/08/31 09:08:42;;;;;;;1.50;1.13;;;;;;;25.15;52.69;99738.72;5056621;28;20060;-63
2022/08/31 09:11:16;;;;;;;;;;;;;;;25.22;52.23;99750.50;5073960;28;20037;-62
2022/08/31 09:13:57;;;;;;;1.48;1.05;;;;;;;25.29;51.54;99732.66;5070231;28;20011;-61
2022/08/31 09:16:37;;;;;;;2.28;1.25;;;;;;;25.49;51.41;99737.56;5051544;28;20060;-62
2022/08/31 09:19:11;;;;;;;0.60;0.60;;;;;;;25.59;50.82;99730.00;5064104;28;20049;-62
2022/08/31 09:21:47;;;;;;;5.35;0.95;;;;;;;25.60;50.30;99721.25;5052191;28;20076;-61
2022/08/31 09:24:19;;;;;;;1.17;1.08;;;;;;;25.60;50.46;99718.63;5056628;28;20072;-62
2022/08/31 09:27:16;;;;;;;0.65;0.65;;;;;;;25.75;50.96;99717.66;5065701;28;20520;-61
2022/08/31 09:29:47;;;;;;;0.98;0.80;;;;;;;25.97;50.92;99712.75;5076406;28;20047;-63
2022/08/31 09:32:23;;;;;;;0.80;0.80;;;;;;;26.12;50.36;99711.00;5076480;28;20498;-62
2022/08/31 09:34:57;;;;;;;1.05;0.95;;;;;;;26.11;49.42;99702.28;5063231;28;20091;-63
2022/08/31 09:37:32;;;;;;;0.60;0.60;;;;;;;26.02;48.34;99704.63;5067068;28;20497;-63
2022/08/31 09:40:15;;;;;;;0.68;0.68;;;;;;;26.11;48.52;99699.69;5056162;28;20095;-63
2022/08/31 09:43:03;;;;;;;0.80;0.80;;;;;;;26.22;49.46;99692.00;5065443;28;20141;-63
2022/08/31 09:45:35;;;;;;;0.63;0.63;;;;;;;26.23;48.40;99696.28;5076128;28;20048;-63
2022/08/31 09:48:11;;;;;;;1.17;1.08;;;;;;;26.22;48.58;99699.84;5076053;28;20053;-63
2022/08/31 09:50:44;;;;;;;2.33;1.30;;;;;;;26.05;48.73;99691.34;5076068;28;20094;-63
2022/08/31 09:56:12;;;;;;;1.02;1.02;;;;;;;25.86;49.01;99684.69;5075877;28;20513;-62
2022/08/31 09:58:45;;;;;;;0.85;0.80;;;;;;;26.03;49.76;99685.38;5075912;28;20486;-63
2022/08/31 10:01:24;;;;;;;0.80;0.80;;;;;;;26.26;49.50;99680.38;5074049;28;20055;-63
2022/08/31 10:04:15;;;;;;;1.02;0.95;;;;;;;26.46;47.92;99679.06;5066203;28;20052;-63
2022/08/31 10:06:49;;;;;;;1.20;1.10;;;;;;;26.71;48.27;99683.50;5075640;28;20064;-63
2022/08/31 10:09:27;;;;;;;0.70;0.70;;;;;;;26.96;48.45;99680.97;5073176;28;20052;-63
2022/08/31 10:11:59;;;;;;;3.90;1.27;;;;;;;27.21;48.19;99680.97;5066527;28;20055;-63
2022/08/31 10:14:35;;;;;;;0.70;0.70;;;;;;;27.36;48.03;99682.50;5065700;28;20084;-63
2022/08/31 10:17:13;;;;;;;0.85;0.85;;;;;;;27.28;46.03;99680.41;5058615;28;20064;-63
2022/08/31 10:19:52;;;;;;;0.70;0.60;;;;;;;27.26;45.07;99676.22;5055563;28;20049;-63
2022/08/31 10:22:33;;;;;;;1.40;1.30;;;;;;;27.29;44.21;99673.41;5055717;28;20052;-63
2022/08/31 10:25:17;;;;;;;0.80;0.80;;;;;;;27.32;45.21;99670.56;5055328;28;20044;-63
2022/08/31 10:27:50;;;;;;;1.40;1.30;;;;;;;27.28;45.08;99654.22;5055598;28;20423;-63
2022/08/31 10:30:34;;;;;;;0.65;0.65;;;;;;;27.50;45.65;99668.50;5055525;28;20049;-63
2022/08/31 10:33:11;;;;;;;0.93;0.82;;;;;;;27.69;46.85;99664.44;5055194;28;20048;-63
2022/08/31 10:35:53;;;;;;;3.95;1.95;;;;;;;27.78;45.29;99662.97;5055135;28;20080;-63
2022/08/31 10:38:33;;;;;;;0.80;0.80;;;;;;;27.67;44.15;99661.09;5055910;28;20045;-63
2022/08/31 10:41:13;;;;;;;0.93;0.82;;;;;;;27.49;44.32;99667.66;5054977;28;20106;-63
2022/08/31 10:43:47;;;;;;;1.25;0.98;;;;;;;27.50;43.95;99664.06;5064530;28;20406;-63
2022/08/31 10:46:17;;;;;;;1.38;0.95;;;;;;;27.54;42.94;99655.06;5067897;28;20052;-63
2022/08/31 10:48:52;;;;;;;0.60;0.60;;;;;;;27.70;42.47;99653.00;5053580;28;20056;-62
2022/08/31 10:51:33;;;;;;;1.35;0.63;;;;;;;27.58;42.32;99646.00;5055097;28;20048;-63
2022/08/31 10:54:23;;;;;;;0.73;0.73;;;;;;;27.71;44.34;99641.59;5064932;28;20048;-62
2022/08/31 10:57:02;;;;;;;0.60;0.60;;;;;;;27.91;45.02;99638.34;5064359;28;20053;-65
2022/08/31 10:59:39;;;;;;;0.88;0.82;;;;;;;27.95;43.79;99640.75;5063403;28;20045;-62
2022/08/31 11:02:40;;;;;;;1.30;0.95;;;;;;;27.97;42.43;99639.69;5055171;28;20503;-63
2022/08/31 11:05:27;;;;;;;0.80;0.80;;;;;;;27.88;41.87;99635.13;5074257;28;20048;-65
2022/08/31 11:08:14;;;;;;;0.50;0.50;;;;;;;27.70;41.26;99628.56;5065420;28;20049;-62
2022/08/31 11:10:50;;;;;;;0.60;0.60;;;;;;;27.79;41.49;99626.09;5074441;28;20044;-62
2022/08/31 11:13:39;;;;;;;0.63;0.63;;;;;;;27.87;41.72;99615.91;5067932;28;20052;-62
2022/08/31 11:16:22;;;;;;;2.15;1.15;;;;;;;28.02;42.08;99626.25;5060228;28;20098;-62
2022/08/31 11:19:17;;;;;;;0.77;0.50;;;;;;;27.82;41.49;99620.66;5055199;28;20457;-61
2022/08/31 11:22:02;;;;;;;0.40;0.40;;;;;;;27.55;41.27;99620.00;5054543;28;20053;-62
2022/08/31 11:25:02;;;;;;;0.65;0.65;;;;;;;27.24;41.41;99625.69;5054179;28;20056;-62
2022/08/31 11:27:38;;;;;;;0.77;0.77;;;;;;;26.98;41.56;99621.41;5037855;28;20048;-63
2022/08/31 11:30:15;;;;;;;0.50;0.50;;;;;;;26.72;41.20;99622.34;5054432;28;20091;-63
2022/08/31 11:32:49;;;;;;;0.65;0.65;;;;;;;26.63;41.43;99619.38;5054390;28;20056;-63
2022/08/31 11:35:44;;;;;;;0.70;0.70;;;;;;;26.77;43.31;99625.53;5054039;28;20049;-62
2022/08/31 11:38:46;;;;;;;1.83;1.40;;;;;;;26.95;43.50;99619.00;5054040;28;20044;-62
2022/08/31 11:41:35;;;;;;;1.08;0.93;;;;;;;26.91;43.60;99614.94;5053869;28;20045;-62
2022/08/31 11:44:07;;;;;;;0.80;0.80;;;;;;;26.78;44.22;99617.53;5054846;28;20056;-61
2022/08/31 11:47:03;;;;;;;0.88;0.88;;;;;;;26.90;43.47;99626.38;5053733;28;20107;-61
2022/08/31 11:49:46;;;;;;;0.70;0.70;;;;;;;27.04;43.40;99623.63;5053840;28;20052;-63
2022/08/31 11:52:29;;;;;;;1.52;1.30;;;;;;;27.18;43.36;99623.50;5057626;28;20045;-61
2022/08/31 11:55:36;;;;;;;0.70;0.70;;;;;;;27.21;44.28;99620.69;5053601;28;20068;-62
2022/08/31 11:58:17;;;;;;;1.63;1.05;;;;;;;26.97;44.89;99630.25;5053847;28;20064;-62
2022/08/31 12:00:56;;;;;;;1.00;1.00;;;;;;;26.77;45.26;99628.13;5059194;28;20036;-63
2022/08/31 12:03:49;;;;;;;1.73;1.00;;;;;;;26.69;45.57;99627.78;5053884;28;20394;-62
2022/08/31 12:06:42;;;;;;;0.95;0.90;;;;;;;26.67;45.88;99627.03;5062400;28;20040;-63
2022/08/31 12:09:23;;;;;;;0.88;0.82;;;;;;;26.63;46.19;99637.72;5056154;28;20123;-63
2022/08/31 12:12:06;;;;;;;23.67;1.35;;;;;;;26.83;46.40;99635.56;5053570;28;20053;-62
2022/08/31 12:14:49;;;;;;;0.90;0.77;;;;;;;26.97;45.25;99627.63;5053989;28;20072;-62
2022/08/31 12:17:29;;;;;;;1.20;0.93;;;;;;;26.99;45.17;99621.34;5053195;28;20045;-63
2022/08/31 12:20:08;;;;;;;1.95;1.33;;;;;;;27.05;45.33;99633.16;5053539;28;20044;-62
2022/08/31 12:25:54;;;;;;;0.70;0.70;;;;;;;26.94;44.78;99633.91;5053295;28;20072;-63